sensor_id;sensor_type;location;lat;lon;timestamp;pressure;altitude;pressure_sealevel;temperature;humidity
68941;BME280;55982;51.476;7.552;2023-03-01T00:01:58;101151.06;;;-2.97;100.00
68941;BME280;55982;51.476;7.552;2023-03-01T00:04:23;101152.84;;;-2.96;100.00
68941;BME280;55982;51.476;7.552;2023-03-01T00:06:48;101143.97;;;-3.04;100.00
68941;BME280;55982;51.476;7.552;2023-03-01T00:09:15;101130.22;;;-3.06;100.00
68941;BME280;55982;51.476;7.552;2023-03-01T00:11:40;101130.34;;;-3.03;100.00
68941;BME280;55982;51.476;7.552;2023-03-01T00:14:06;101127.25;;;-2.96;100.00
68941;BME280;55982;51.476;7.552;2023-03-01T00:16:40;101129.25;;;-2.89;100.00
68941;BME280;55982;51.476;7.552;2023-03-01T00:19:07;101130.06;;;-2.90;100.00
68941;BME280;55982;51.476;7.552;2023-03-01T00:21:33;101122.59;;;-2.84;100.00
68941;BME280;55982;51.476;7.552;2023-03-01T00:24:00;101128.50;;;-2.66;100.00
68941;BME280;55982;51.476;7.552;2023-03-01T00:26:26;101120.72;;;-2.47;100.00
68941;BME280;55982;51.476;7.552;2023-03-01T00:28:53;101115.69;;;-2.44;100.00
68941;BME280;55982;51.476;7.552;2023-03-01T00:31:26;101119.03;;;-2.67;100.00
68941;BME280;55982;51.476;7.552;2023-03-01T00:33:57;101118.00;;;-2.72;100.00
68941;BME280;55982;51.476;7.552;2023-03-01T00:36:24;101122.63;;;-2.63;100.00
68941;BME280;55982;51.476;7.552;2023-03-01T00:38:50;101111.50;;;-2.85;100.00
68941;BME280;55982;51.476;7.552;2023-03-01T00:41:17;101110.50;;;-3.09;100.00
68941;BME280;55982;51.476;7.552;2023-03-01T00:43:44;101108.50;;;-3.16;100.00
68941;BME280;55982;51.476;7.552;2023-03-01T00:46:13;101108.38;;;-2.98;100.00
68941;BME280;55982;51.476;7.552;2023-03-01T00:48:40;101107.25;;;-2.84;100.00
68941;BME280;55982;51.476;7.552;2023-03-01T00:53:36;101107.97;;;-3.28;100.00
68941;BME280;55982;51.476;7.552;2023-03-01T00:56:02;101101.84;;;-3.31;100.00
68941;BME280;55982;51.476;7.552;2023-03-01T00:58:28;101090.88;;;-3.29;100.00
68941;BME280;55982;51.476;7.552;2023-03-01T01:00:53;101089.78;;;-3.34;100.00
68941;BME280;55982;51.476;7.552;2023-03-01T01:03:19;101088.84;;;-3.36;100.00
68941;BME280;55982;51.476;7.552;2023-03-01T01:05:45;101086.88;;;-3.22;100.00
68941;BME280;55982;51.476;7.552;2023-03-01T01:08:10;101079.50;;;-3.35;100.00
68941;BME280;55982;51.476;7.552;2023-03-01T01:10:36;101084.25;;;-3.44;100.00
68941;BME280;55982;51.476;7.552;2023-03-01T01:13:01;101075.63;;;-3.46;100.00
68941;BME280;55982;51.476;7.552;2023-03-01T01:15:27;101070.38;;;-3.49;100.00
68941;BME280;55982;51.476;7.552;2023-03-01T01:17:52;101071.75;;;-3.57;100.00
68941;BME280;55982;51.476;7.552;2023-03-01T01:20:18;101077.53;;;-3.61;100.00
68941;BME280;55982;51.476;7.552;2023-03-01T01:22:43;101071.78;;;-3.16;100.00
68941;BME280;55982;51.476;7.552;2023-03-01T01:25:09;101075.09;;;-3.19;100.00
68941;BME280;55982;51.476;7.552;2023-03-01T01:27:34;101070.41;;;-3.29;100.00
68941;BME280;55982;51.476;7.552;2023-03-01T01:29:59;101080.84;;;-3.43;100.00
68941;BME280;55982;51.476;7.552;2023-03-01T01:32:25;101083.97;;;-3.50;100.00
68941;BME280;55982;51.476;7.552;2023-03-01T01:34:50;101080.16;;;-3.79;100.00
68941;BME280;55982;51.476;7.552;2023-03-01T01:37:16;101078.59;;;-3.95;100.00
68941;BME280;55982;51.476;7.552;2023-03-01T01:39:41;101075.09;;;-4.16;100.00
68941;BME280;55982;51.476;7.552;2023-03-01T01:42:15;101078.69;;;-4.30;100.00
68941;BME280;55982;51.476;7.552;2023-03-01T01:44:42;101076.78;;;-4.34;100.00
68941;BME280;55982;51.476;7.552;2023-03-01T01:47:16;101081.06;;;-4.52;100.00
68941;BME280;55982;51.476;7.552;2023-03-01T01:49:53;101080.47;;;-4.64;100.00
68941;BME280;55982;51.476;7.552;2023-03-01T01:52:23;101075.31;;;-4.66;100.00
68941;BME280;55982;51.476;7.552;2023-03-01T01:54:54;101073.78;;;-4.62;100.00
68941;BME280;55982;51.476;7.552;2023-03-01T01:57:52;101058.09;;;-4.52;100.00
68941;BME280;55982;51.476;7.552;2023-03-01T02:00:21;101051.00;;;-4.40;100.00
68941;BME280;55982;51.476;7.552;2023-03-01T02:02:49;101058.13;;;-4.33;100.00
68941;BME280;55982;51.476;7.552;2023-03-01T02:05:29;101060.31;;;-4.23;100.00
68941;BME280;55982;51.476;7.552;2023-03-01T02:07:58;101053.84;;;-4.15;100.00
68941;BME280;55982;51.476;7.552;2023-03-01T02:10:23;101053.84;;;-4.15;100.00
68941;BME280;55982;51.476;7.552;2023-03-01T02:12:50;101052.09;;;-4.16;100.00
68941;BME280;55982;51.476;7.552;2023-03-01T02:15:16;101056.66;;;-4.28;100.00
68941;BME280;55982;51.476;7.552;2023-03-01T02:17:41;101044.66;;;-4.48;100.00
68941;BME280;55982;51.476;7.552;2023-03-01T02:20:19;101042.72;;;-4.71;100.00
68941;BME280;55982;51.476;7.552;2023-03-01T02:22:48;101038.94;;;-4.79;100.00
68941;BME280;55982;51.476;7.552;2023-03-01T02:30:33;101035.22;;;-4.49;100.00
68941;BME280;55982;51.476;7.552;2023-03-01T02:33:00;101038.91;;;-4.44;100.00
68941;BME280;55982;51.476;7.552;2023-03-01T02:35:37;101035.81;;;-4.37;100.00
68941;BME280;55982;51.476;7.552;2023-03-01T02:38:06;101038.28;;;-4.38;100.00
68941;BME280;55982;51.476;7.552;2023-03-01T02:40:34;101032.19;;;-4.42;100.00
68941;BME280;55982;51.476;7.552;2023-03-01T02:43:02;101043.19;;;-4.43;100.00
68941;BME280;55982;51.476;7.552;2023-03-01T02:45:30;101048.91;;;-4.29;100.00
68941;BME280;55982;51.476;7.552;2023-03-01T02:47:57;101049.22;;;-4.41;100.00
68941;BME280;55982;51.476;7.552;2023-03-01T02:50:25;101046.00;;;-4.37;100.00
68941;BME280;55982;51.476;7.552;2023-03-01T02:53:16;101038.34;;;-4.37;100.00
68941;BME280;55982;51.476;7.552;2023-03-01T02:55:47;101037.41;;;-4.39;100.00
68941;BME280;55982;51.476;7.552;2023-03-01T02:58:13;101042.53;;;-4.39;100.00
68941;BME280;55982;51.476;7.552;2023-03-01T03:00:41;101032.31;;;-4.39;100.00
68941;BME280;55982;51.476;7.552;2023-03-01T03:03:13;101025.47;;;-4.40;100.00
68941;BME280;55982;51.476;7.552;2023-03-01T03:05:39;101026.53;;;-4.35;100.00
68941;BME280;55982;51.476;7.552;2023-03-01T03:08:04;101032.88;;;-4.27;100.00
68941;BME280;55982;51.476;7.552;2023-03-01T03:10:33;101025.22;;;-4.27;100.00
68941;BME280;55982;51.476;7.552;2023-03-01T03:13:01;101023.97;;;-4.35;100.00
68941;BME280;55982;51.476;7.552;2023-03-01T03:15:27;101030.81;;;-4.34;100.00
68941;BME280;55982;51.476;7.552;2023-03-01T03:17:55;101030.16;;;-4.30;100.00
68941;BME280;55982;51.476;7.552;2023-03-01T03:20:25;101030.06;;;-4.14;100.00
68941;BME280;55982;51.476;7.552;2023-03-01T03:22:53;101023.06;;;-4.18;100.00
68941;BME280;55982;51.476;7.552;2023-03-01T03:25:19;101028.63;;;-4.07;100.00
68941;BME280;55982;51.476;7.552;2023-03-01T03:27:47;101027.34;;;-4.17;100.00
68941;BME280;55982;51.476;7.552;2023-03-01T03:30:15;101029.16;;;-4.33;100.00
68941;BME280;55982;51.476;7.552;2023-03-01T03:32:45;101016.53;;;-4.30;100.00
68941;BME280;55982;51.476;7.552;2023-03-01T03:35:18;101021.56;;;-4.32;100.00
68941;BME280;55982;51.476;7.552;2023-03-01T03:37:44;101019.88;;;-4.12;100.00
68941;BME280;55982;51.476;7.552;2023-03-01T03:40:31;101017.94;;;-4.18;100.00
68941;BME280;55982;51.476;7.552;2023-03-01T03:42:57;101010.81;;;-4.25;100.00
68941;BME280;55982;51.476;7.552;2023-03-01T03:45:22;101005.56;;;-4.28;100.00
68941;BME280;55982;51.476;7.552;2023-03-01T03:47:48;100995.81;;;-4.36;100.00
68941;BME280;55982;51.476;7.552;2023-03-01T03:50:15;100989.72;;;-4.40;100.00
68941;BME280;55982;51.476;7.552;2023-03-01T03:52:40;100990.28;;;-4.45;100.00
68941;BME280;55982;51.476;7.552;2023-03-01T03:55:08;100985.19;;;-4.45;100.00
68941;BME280;55982;51.476;7.552;2023-03-01T03:57:40;100983.66;;;-4.42;100.00
68941;BME280;55982;51.476;7.552;2023-03-01T04:00:09;100977.75;;;-4.41;100.00
68941;BME280;55982;51.476;7.552;2023-03-01T04:02:42;100974.50;;;-4.37;100.00
68941;BME280;55982;51.476;7.552;2023-03-01T04:05:08;100979.63;;;-4.37;100.00
68941;BME280;55982;51.476;7.552;2023-03-01T04:07:35;100981.00;;;-4.43;100.00
68941;BME280;55982;51.476;7.552;2023-03-01T04:10:03;100983.19;;;-4.70;100.00
68941;BME280;55982;51.476;7.552;2023-03-01T04:12:28;100990.88;;;-4.88;100.00
68941;BME280;55982;51.476;7.552;2023-03-01T04:14:54;100993.94;;;-4.95;100.00
68941;BME280;55982;51.476;7.552;2023-03-01T04:17:19;100992.78;;;-5.01;100.00
68941;BME280;55982;51.476;7.552;2023-03-01T04:19:44;100991.47;;;-4.93;100.00
68941;BME280;55982;51.476;7.552;2023-03-01T04:22:14;100992.19;;;-4.78;100.00
68941;BME280;55982;51.476;7.552;2023-03-01T04:24:42;100998.09;;;-4.79;100.00
68941;BME280;55982;51.476;7.552;2023-03-01T04:27:08;100997.22;;;-4.80;100.00
68941;BME280;55982;51.476;7.552;2023-03-01T04:29:34;101008.25;;;-4.44;100.00
68941;BME280;55982;51.476;7.552;2023-03-01T04:31:59;101005.53;;;-4.84;100.00
68941;BME280;55982;51.476;7.552;2023-03-01T04:34:25;101000.88;;;-5.10;100.00
68941;BME280;55982;51.476;7.552;2023-03-01T04:36:52;101002.78;;;-5.23;100.00
68941;BME280;55982;51.476;7.552;2023-03-01T04:39:18;101003.16;;;-4.98;100.00
68941;BME280;55982;51.476;7.552;2023-03-01T04:41:43;100987.78;;;-5.17;100.00
68941;BME280;55982;51.476;7.552;2023-03-01T04:44:08;100987.59;;;-5.20;100.00
68941;BME280;55982;51.476;7.552;2023-03-01T04:46:34;100989.19;;;-5.22;100.00
68941;BME280;55982;51.476;7.552;2023-03-01T04:49:00;100985.84;;;-5.39;100.00
68941;BME280;55982;51.476;7.552;2023-03-01T04:51:25;100990.25;;;-5.36;100.00
68941;BME280;55982;51.476;7.552;2023-03-01T04:53:50;100991.66;;;-5.41;100.00
68941;BME280;55982;51.476;7.552;2023-03-01T04:56:16;100990.13;;;-5.55;100.00
68941;BME280;55982;51.476;7.552;2023-03-01T04:58:45;100995.25;;;-5.55;100.00
68941;BME280;55982;51.476;7.552;2023-03-01T05:01:16;100987.72;;;-5.52;100.00
68941;BME280;55982;51.476;7.552;2023-03-01T05:03:43;100989.06;;;-5.43;100.00
68941;BME280;55982;51.476;7.552;2023-03-01T05:06:09;100988.34;;;-5.40;100.00
68941;BME280;55982;51.476;7.552;2023-03-01T05:08:36;100993.00;;;-5.49;100.00
68941;BME280;55982;51.476;7.552;2023-03-01T05:11:05;100999.69;;;-5.51;100.00
68941;BME280;55982;51.476;7.552;2023-03-01T05:13:31;100992.09;;;-5.50;100.00
68941;BME280;55982;51.476;7.552;2023-03-01T05:15:59;100996.75;;;-5.41;100.00
68941;BME280;55982;51.476;7.552;2023-03-01T05:18:26;100992.13;;;-5.32;100.00
68941;BME280;55982;51.476;7.552;2023-03-01T05:20:52;100993.16;;;-5.29;100.00
68941;BME280;55982;51.476;7.552;2023-03-01T05:23:18;100987.16;;;-5.29;100.00
68941;BME280;55982;51.476;7.552;2023-03-01T05:25:44;100978.75;;;-5.28;100.00
68941;BME280;55982;51.476;7.552;2023-03-01T05:28:11;100975.25;;;-5.30;100.00
68941;BME280;55982;51.476;7.552;2023-03-01T05:30:36;100970.88;;;-5.15;100.00
68941;BME280;55982;51.476;7.552;2023-03-01T05:33:04;100976.69;;;-5.00;100.00
68941;BME280;55982;51.476;7.552;2023-03-01T05:35:32;100964.91;;;-4.79;100.00
68941;BME280;55982;51.476;7.552;2023-03-01T05:37:58;100969.22;;;-4.78;100.00
68941;BME280;55982;51.476;7.552;2023-03-01T05:40:23;100963.28;;;-4.96;100.00
68941;BME280;55982;51.476;7.552;2023-03-01T05:42:54;100971.94;;;-5.28;100.00
68941;BME280;55982;51.476;7.552;2023-03-01T05:45:20;100977.69;;;-5.49;100.00
68941;BME280;55982;51.476;7.552;2023-03-01T05:47:47;100975.19;;;-5.66;100.00
68941;BME280;55982;51.476;7.552;2023-03-01T05:50:18;100986.66;;;-5.74;100.00
68941;BME280;55982;51.476;7.552;2023-03-01T05:52:49;100982.06;;;-5.81;100.00
68941;BME280;55982;51.476;7.552;2023-03-01T05:55:19;100978.38;;;-5.70;100.00
68941;BME280;55982;51.476;7.552;2023-03-01T05:57:46;100976.47;;;-5.74;100.00
68941;BME280;55982;51.476;7.552;2023-03-01T06:00:12;100979.53;;;-5.81;100.00
68941;BME280;55982;51.476;7.552;2023-03-01T06:02:38;100973.78;;;-5.77;100.00
68941;BME280;55982;51.476;7.552;2023-03-01T06:05:08;100976.47;;;-5.74;100.00
68941;BME280;55982;51.476;7.552;2023-03-01T06:07:34;100966.94;;;-5.78;100.00
68941;BME280;55982;51.476;7.552;2023-03-01T06:10:01;100971.94;;;-5.79;100.00
68941;BME280;55982;51.476;7.552;2023-03-01T06:12:30;100979.66;;;-5.78;100.00
68941;BME280;55982;51.476;7.552;2023-03-01T06:14:55;100977.03;;;-5.79;100.00
68941;BME280;55982;51.476;7.552;2023-03-01T06:17:20;100981.56;;;-5.74;100.00
68941;BME280;55982;51.476;7.552;2023-03-01T06:19:46;100977.22;;;-5.59;100.00
68941;BME280;55982;51.476;7.552;2023-03-01T06:22:12;100986.44;;;-5.44;100.00
68941;BME280;55982;51.476;7.552;2023-03-01T06:24:37;100984.88;;;-5.59;100.00
68941;BME280;55982;51.476;7.552;2023-03-01T06:27:03;100981.75;;;-5.71;100.00
68941;BME280;55982;51.476;7.552;2023-03-01T06:29:28;100978.25;;;-5.73;100.00
68941;BME280;55982;51.476;7.552;2023-03-01T06:31:53;100969.78;;;-5.72;100.00
68941;BME280;55982;51.476;7.552;2023-03-01T06:34:19;100978.50;;;-5.67;100.00
68941;BME280;55982;51.476;7.552;2023-03-01T06:36:44;100975.31;;;-5.63;100.00
68941;BME280;55982;51.476;7.552;2023-03-01T06:39:09;100977.84;;;-5.46;100.00
68941;BME280;55982;51.476;7.552;2023-03-01T06:41:35;100966.13;;;-5.25;100.00
68941;BME280;55982;51.476;7.552;2023-03-01T06:44:00;100974.38;;;-5.13;100.00
68941;BME280;55982;51.476;7.552;2023-03-01T06:46:25;100961.50;;;-4.97;100.00
68941;BME280;55982;51.476;7.552;2023-03-01T06:48:51;100965.72;;;-4.80;100.00
68941;BME280;55982;51.476;7.552;2023-03-01T06:51:16;100963.47;;;-4.55;100.00
68941;BME280;55982;51.476;7.552;2023-03-01T06:53:42;100964.97;;;-4.22;100.00
68941;BME280;55982;51.476;7.552;2023-03-01T06:56:08;100956.28;;;-4.06;100.00
68941;BME280;55982;51.476;7.552;2023-03-01T06:58:33;100956.38;;;-3.65;100.00
68941;BME280;55982;51.476;7.552;2023-03-01T07:00:59;100953.13;;;-3.40;100.00
68941;BME280;55982;51.476;7.552;2023-03-01T07:03:24;100953.06;;;-2.99;100.00
68941;BME280;55982;51.476;7.552;2023-03-01T07:05:50;100950.53;;;-2.77;100.00
68941;BME280;55982;51.476;7.552;2023-03-01T07:08:19;100949.31;;;-2.63;100.00
68941;BME280;55982;51.476;7.552;2023-03-01T07:10:45;100944.56;;;-2.54;100.00
68941;BME280;55982;51.476;7.552;2023-03-01T07:13:10;100948.63;;;-2.37;100.00
68941;BME280;55982;51.476;7.552;2023-03-01T07:15:36;100944.25;;;-2.16;100.00
68941;BME280;55982;51.476;7.552;2023-03-01T07:18:01;100943.38;;;-1.93;100.00
68941;BME280;55982;51.476;7.552;2023-03-01T07:20:26;100934.44;;;-1.53;100.00
68941;BME280;55982;51.476;7.552;2023-03-01T07:22:53;100939.69;;;-1.50;100.00
68941;BME280;55982;51.476;7.552;2023-03-01T07:25:19;100936.03;;;-1.30;100.00
68941;BME280;55982;51.476;7.552;2023-03-01T07:27:49;100932.31;;;-1.13;100.00
68941;BME280;55982;51.476;7.552;2023-03-01T07:30:14;100934.47;;;-1.00;100.00
68941;BME280;55982;51.476;7.552;2023-03-01T07:32:39;100936.56;;;-0.87;100.00
68941;BME280;55982;51.476;7.552;2023-03-01T07:35:05;100941.53;;;-0.63;100.00
68941;BME280;55982;51.476;7.552;2023-03-01T07:37:31;100932.38;;;-0.55;100.00
68941;BME280;55982;51.476;7.552;2023-03-01T07:39:56;100921.75;;;-0.07;100.00
68941;BME280;55982;51.476;7.552;2023-03-01T07:42:22;100913.47;;;0.04;100.00
68941;BME280;55982;51.476;7.552;2023-03-01T07:44:48;100914.44;;;0.09;100.00
68941;BME280;55982;51.476;7.552;2023-03-01T07:47:13;100914.19;;;0.31;100.00
68941;BME280;55982;51.476;7.552;2023-03-01T07:49:39;100915.59;;;0.88;100.00
68941;BME280;55982;51.476;7.552;2023-03-01T07:52:04;100905.16;;;1.21;100.00
68941;BME280;55982;51.476;7.552;2023-03-01T07:54:29;100917.13;;;1.57;100.00
68941;BME280;55982;51.476;7.552;2023-03-01T07:56:56;100918.03;;;2.06;100.00
68941;BME280;55982;51.476;7.552;2023-03-01T07:59:21;100918.50;;;2.30;100.00
68941;BME280;55982;51.476;7.552;2023-03-01T08:01:48;100925.94;;;2.61;100.00
68941;BME280;55982;51.476;7.552;2023-03-01T08:04:14;100928.84;;;2.82;100.00
68941;BME280;55982;51.476;7.552;2023-03-01T08:06:39;100926.25;;;3.40;100.00
68941;BME280;55982;51.476;7.552;2023-03-01T08:09:04;100929.88;;;3.53;100.00
68941;BME280;55982;51.476;7.552;2023-03-01T08:11:30;100923.38;;;3.19;100.00
68941;BME280;55982;51.476;7.552;2023-03-01T08:13:55;100922.03;;;3.45;100.00
68941;BME280;55982;51.476;7.552;2023-03-01T08:16:21;100919.16;;;2.69;100.00
68941;BME280;55982;51.476;7.552;2023-03-01T08:18:47;100928.91;;;3.46;100.00
68941;BME280;55982;51.476;7.552;2023-03-01T08:21:14;100931.28;;;3.30;100.00
68941;BME280;55982;51.476;7.552;2023-03-01T08:23:40;100924.69;;;4.28;100.00
68941;BME280;55982;51.476;7.552;2023-03-01T08:26:18;100923.13;;;4.45;100.00
68941;BME280;55982;51.476;7.552;2023-03-01T08:28:44;100916.78;;;4.14;100.00
68941;BME280;55982;51.476;7.552;2023-03-01T08:31:27;100919.66;;;4.46;100.00
68941;BME280;55982;51.476;7.552;2023-03-01T08:33:56;100921.78;;;4.92;100.00
68941;BME280;55982;51.476;7.552;2023-03-01T08:36:28;100919.84;;;4.67;98.92
68941;BME280;55982;51.476;7.552;2023-03-01T08:38:54;100899.66;;;5.51;100.00
68941;BME280;55982;51.476;7.552;2023-03-01T08:41:19;100908.41;;;5.72;97.97
68941;BME280;55982;51.476;7.552;2023-03-01T08:43:45;100909.25;;;5.69;93.78
68941;BME280;55982;51.476;7.552;2023-03-01T08:46:11;100909.13;;;5.39;92.85
68941;BME280;55982;51.476;7.552;2023-03-01T08:48:37;100912.94;;;4.66;95.38
68941;BME280;55982;51.476;7.552;2023-03-01T08:51:21;100921.59;;;4.68;97.10
68941;BME280;55982;51.476;7.552;2023-03-01T08:53:47;100918.31;;;4.90;86.90
68941;BME280;55982;51.476;7.552;2023-03-01T08:56:14;100913.34;;;4.15;94.65
68941;BME280;55982;51.476;7.552;2023-03-01T08:58:43;100908.41;;;5.81;87.22
68941;BME280;55982;51.476;7.552;2023-03-01T09:01:11;100917.19;;;6.13;77.17
68941;BME280;55982;51.476;7.552;2023-03-01T09:03:37;100914.66;;;6.35;79.39
68941;BME280;55982;51.476;7.552;2023-03-01T09:06:04;100909.72;;;4.97;81.95
68941;BME280;55982;51.476;7.552;2023-03-01T09:08:31;100899.66;;;5.48;82.05
68941;BME280;55982;51.476;7.552;2023-03-01T09:11:01;100905.97;;;6.14;83.22
68941;BME280;55982;51.476;7.552;2023-03-01T09:13:27;100908.59;;;7.10;78.90
68941;BME280;55982;51.476;7.552;2023-03-01T09:15:56;100906.59;;;5.52;74.06
68941;BME280;55982;51.476;7.552;2023-03-01T09:18:21;100906.34;;;5.09;78.09
68941;BME280;55982;51.476;7.552;2023-03-01T09:20:46;100905.44;;;5.01;79.90
68941;BME280;55982;51.476;7.552;2023-03-01T09:23:12;100905.06;;;3.68;86.06
68941;BME280;55982;51.476;7.552;2023-03-01T09:25:37;100889.13;;;5.21;84.04
68941;BME280;55982;51.476;7.552;2023-03-01T09:28:02;100884.06;;;5.48;76.95
68941;BME280;55982;51.476;7.552;2023-03-01T09:30:28;100882.34;;;5.50;80.22
68941;BME280;55982;51.476;7.552;2023-03-01T09:32:56;100880.81;;;6.04;84.15
68941;BME280;55982;51.476;7.552;2023-03-01T09:35:21;100884.06;;;5.51;77.16
68941;BME280;55982;51.476;7.552;2023-03-01T09:37:47;100875.38;;;5.37;83.58
68941;BME280;55982;51.476;7.552;2023-03-01T09:40:17;100870.66;;;4.72;85.28
68941;BME280;55982;51.476;7.552;2023-03-01T09:43:42;100862.50;;;5.71;77.34
68941;BME280;55982;51.476;7.552;2023-03-01T09:46:03;100862.00;;;4.67;79.70
68941;BME280;55982;51.476;7.552;2023-03-01T09:48:36;100860.94;;;6.63;77.87
68941;BME280;55982;51.476;7.552;2023-03-01T09:51:07;100855.28;;;5.00;76.34
68941;BME280;55982;51.476;7.552;2023-03-01T09:53:34;100853.72;;;5.31;79.75
68941;BME280;55982;51.476;7.552;2023-03-01T09:58:55;100860.44;;;4.93;77.40
68941;BME280;55982;51.476;7.552;2023-03-01T10:07:38;100865.75;;;5.14;76.48
68941;BME280;55982;51.476;7.552;2023-03-01T10:10:23;100866.84;;;5.72;75.67
68941;BME280;55982;51.476;7.552;2023-03-01T10:12:52;100866.25;;;4.60;77.83
68941;BME280;55982;51.476;7.552;2023-03-01T10:15:24;100864.91;;;5.16;75.40
68941;BME280;55982;51.476;7.552;2023-03-01T10:17:56;100864.94;;;5.25;72.96
68941;BME280;55982;51.476;7.552;2023-03-01T10:20:24;100871.34;;;6.31;76.24
68941;BME280;55982;51.476;7.552;2023-03-01T10:22:50;100871.34;;;6.49;71.71
68941;BME280;55982;51.476;7.552;2023-03-01T10:25:30;100866.16;;;6.40;70.70
68941;BME280;55982;51.476;7.552;2023-03-01T10:31:03;100846.19;;;6.59;72.05
68941;BME280;55982;51.476;7.552;2023-03-01T10:33:32;100856.53;;;7.13;71.20
68941;BME280;55982;51.476;7.552;2023-03-01T10:35:58;100841.88;;;6.64;71.92
68941;BME280;55982;51.476;7.552;2023-03-01T10:38:23;100842.69;;;6.90;68.29
68941;BME280;55982;51.476;7.552;2023-03-01T10:40:55;100828.63;;;7.55;65.83
68941;BME280;55982;51.476;7.552;2023-03-01T10:43:25;100841.03;;;6.56;69.38
68941;BME280;55982;51.476;7.552;2023-03-01T10:45:52;100839.22;;;6.94;70.51
68941;BME280;55982;51.476;7.552;2023-03-01T10:51:04;100826.28;;;6.72;67.70
68941;BME280;55982;51.476;7.552;2023-03-01T10:53:40;100834.00;;;7.06;69.64
68941;BME280;55982;51.476;7.552;2023-03-01T10:58:36;100827.16;;;6.60;69.03
68941;BME280;55982;51.476;7.552;2023-03-01T11:01:06;100802.84;;;5.74;74.25
68941;BME280;55982;51.476;7.552;2023-03-01T11:06:33;100812.41;;;6.82;72.48
68941;BME280;55982;51.476;7.552;2023-03-01T11:09:20;100809.81;;;6.38;72.80
68941;BME280;55982;51.476;7.552;2023-03-01T11:11:46;100801.84;;;7.22;69.34
68941;BME280;55982;51.476;7.552;2023-03-01T11:14:20;100803.75;;;6.74;68.53
68941;BME280;55982;51.476;7.552;2023-03-01T11:16:48;100801.03;;;7.14;70.20
68941;BME280;55982;51.476;7.552;2023-03-01T11:19:19;100799.25;;;7.25;70.88
68941;BME280;55982;51.476;7.552;2023-03-01T11:24:16;100785.94;;;7.75;69.35
68941;BME280;55982;51.476;7.552;2023-03-01T11:26:47;100789.50;;;7.62;67.95
68941;BME280;55982;51.476;7.552;2023-03-01T11:29:35;100790.78;;;6.59;70.62
68941;BME280;55982;51.476;7.552;2023-03-01T11:32:06;100792.34;;;7.18;70.33
68941;BME280;55982;51.476;7.552;2023-03-01T11:34:40;100801.16;;;6.66;72.54
68941;BME280;55982;51.476;7.552;2023-03-01T11:37:20;100799.34;;;6.86;70.59
68941;BME280;55982;51.476;7.552;2023-03-01T11:39:58;100790.69;;;6.78;72.28
68941;BME280;55982;51.476;7.552;2023-03-01T11:42:55;100799.47;;;6.20;71.13
68941;BME280;55982;51.476;7.552;2023-03-01T11:45:24;100800.31;;;6.14;70.02
68941;BME280;55982;51.476;7.552;2023-03-01T11:48:24;100790.31;;;7.69;69.66
68941;BME280;55982;51.476;7.552;2023-03-01T11:50:54;100787.06;;;7.30;69.02
68941;BME280;55982;51.476;7.552;2023-03-01T11:56:09;100781.84;;;7.36;68.27
68941;BME280;55982;51.476;7.552;2023-03-01T11:58:43;100783.38;;;7.74;66.52
68941;BME280;55982;51.476;7.552;2023-03-01T12:07:30;100778.59;;;6.74;65.33
68941;BME280;55982;51.476;7.552;2023-03-01T12:15:47;100758.63;;;6.84;66.93
68941;BME280;55982;51.476;7.552;2023-03-01T12:18:30;100761.59;;;7.81;65.90
68941;BME280;55982;51.476;7.552;2023-03-01T12:26:35;100757.00;;;6.12;68.51
68941;BME280;55982;51.476;7.552;2023-03-01T12:35:05;100742.16;;;5.32;75.63
68941;BME280;55982;51.476;7.552;2023-03-01T12:37:46;100743.88;;;5.30;77.02
68941;BME280;55982;51.476;7.552;2023-03-01T12:48:35;100733.56;;;5.57;73.71
68941;BME280;55982;51.476;7.552;2023-03-01T12:51:11;100731.78;;;5.32;73.46
68941;BME280;55982;51.476;7.552;2023-03-01T12:53:42;100726.53;;;5.08;74.94
68941;BME280;55982;51.476;7.552;2023-03-01T12:56:12;100722.13;;;4.86;73.86
68941;BME280;55982;51.476;7.552;2023-03-01T12:58:54;100730.88;;;5.14;75.32
68941;BME280;55982;51.476;7.552;2023-03-01T13:04:28;100722.28;;;5.42;74.79
68941;BME280;55982;51.476;7.552;2023-03-01T13:09:51;100716.25;;;5.47;75.22
68941;BME280;55982;51.476;7.552;2023-03-01T13:12:45;100699.78;;;5.18;71.88
68941;BME280;55982;51.476;7.552;2023-03-01T13:17:51;100699.78;;;5.29;69.81
68941;BME280;55982;51.476;7.552;2023-03-01T13:21:06;100698.06;;;5.28;71.16
68941;BME280;55982;51.476;7.552;2023-03-01T13:31:09;100698.09;;;5.41;74.13
68941;BME280;55982;51.476;7.552;2023-03-01T13:36:08;100695.50;;;5.69;71.72
68941;BME280;55982;51.476;7.552;2023-03-01T13:46:48;100686.84;;;5.42;70.24
68941;BME280;55982;51.476;7.552;2023-03-01T13:49:18;100683.38;;;5.40;68.37
68941;BME280;55982;51.476;7.552;2023-03-01T13:51:51;100674.75;;;5.50;68.48
68941;BME280;55982;51.476;7.552;2023-03-01T13:54:29;100676.50;;;5.61;69.66
68941;BME280;55982;51.476;7.552;2023-03-01T13:56:56;100676.47;;;5.48;67.58
68941;BME280;55982;51.476;7.552;2023-03-01T13:59:23;100674.75;;;5.56;68.40
68941;BME280;55982;51.476;7.552;2023-03-01T14:01:53;100663.50;;;5.62;68.08
68941;BME280;55982;51.476;7.552;2023-03-01T14:06:48;100671.28;;;5.51;68.25
68941;BME280;55982;51.476;7.552;2023-03-01T14:09:22;100659.19;;;5.50;66.98
68941;BME280;55982;51.476;7.552;2023-03-01T14:14:47;100654.00;;;5.56;67.91
68941;BME280;55982;51.476;7.552;2023-03-01T14:20:12;100655.72;;;5.54;67.83
68941;BME280;55982;51.476;7.552;2023-03-01T14:22:41;100651.41;;;5.56;65.80
68941;BME280;55982;51.476;7.552;2023-03-01T14:25:21;100647.91;;;5.51;65.95
68941;BME280;55982;51.476;7.552;2023-03-01T14:27:54;100641.88;;;5.46;66.56
68941;BME280;55982;51.476;7.552;2023-03-01T14:30:32;100653.13;;;5.45;65.00
68941;BME280;55982;51.476;7.552;2023-03-01T14:33:01;100641.88;;;5.46;64.74
68941;BME280;55982;51.476;7.552;2023-03-01T14:35:32;100638.44;;;5.49;65.19
68941;BME280;55982;51.476;7.552;2023-03-01T14:37:59;100612.47;;;5.50;64.21